Tiempo atmosférico en la estación meteorológica de Elgeta, Gipuzkoa (470 m.)



Fecha
DESCASC
Temp. máxima en grados centígrados (hora)
DESCASC
Temp. mínima en grados centígrados (hora)
DESCASC
Temp. media en grados centígrados
DESCASC
Racha de viento máxima en m/sg (hora)
DESCASC
Velocidad máxima media en intervalos de 10 minutos(hora)
DESCASC
Precipitaciones diarias en mm
DESCASC
Precipitaciones de 00:00 a 06:00 en mm
DESCASC
Precipitaciones de 06:00 a 12:00 en mm
DESCASC
Precipitaciones de 12:00 a 18:00 en mm
DESCASC
Precipitaciones de 18:00 a 24:00 en mm
DESCASC
30-11-2020 12.9 (13:20) 6.6 (08:20) 9.7 3.89 (16:20) 1.67 (08:40) 0 0 0 0 0
29-11-2020 15.3 (13:50) 7.6 (00:00) 11.5 4.17 (03:40) 2.22 (03:30) 0 0 0 0 0
28-11-2020 15 (14:10) 7.5 (00:00) 11.3 3.89 (20:20) 1.67 (02:20) 0 0 0 0 0
27-11-2020 15.6 (15:20) 9.5 (00:00) 12.6 13.61 (02:50) 5.83 (00:30) 0 0 0 0 0
26-11-2020 15.6 (12:40) 10.3 (00:00) 13 9.72 (06:50) 3.89 (23:50) 0 0 0 0 0
25-11-2020 12.7 (14:10) 7.6 (00:00) 10.1 7.78 (02:40) 3.33 (03:40) 0 0 0 0 0
24-11-2020 14.4 (14:40) 5.6 (00:00) 10 7.22 (07:30) 3.33 (06:30) 0 0 0 0 0
23-11-2020 13.2 (14:20) 3.9 (00:00) 8.5 3.33 (23:40) 1.94 (23:40) 0 0 0 0 0
22-11-2020 13.8 (14:10) 3.8 (00:00) 8.8 5.56 (04:30) 3.33 (03:40) 0 0 0 0 0
21-11-2020 11.2 (14:20) 2 (00:00) 6.6 3.61 (21:10) 2.5 (21:10) 0 0 0 0 0
20-11-2020 10.9 (14:30) 4.6 (00:00) 7.7 5.28 (15:10) 2.22 (14:40) 1 0.2 0.6 0 0.2
19-11-2020 13.1 (04:40) 7.8 (00:00) 10.5 6.67 (05:00) 3.06 (04:50) 4.4 0 2.4 1.8 0.2
18-11-2020 20.3 (14:30) 12 (00:00) 16.1 8.06 (07:20) 3.06 (06:30) 0 0 0 0 0
17-11-2020 17.1 (14:30) 5.7 (00:00) 11.4 8.89 (23:30) 2.5 (08:30) 0 0 0 0 0
16-11-2020 13.5 (13:30) 7.5 (00:00) 10.5 4.72 (03:10) 1.94 (03:10) 5.4 2.6 2.6 0 0.2
15-11-2020 19.3 (13:50) 10.4 (00:00) 14.8 11.94 (06:50) 3.06 (08:30) 8.2 0 0 0.2 8
14-11-2020 17.2 (13:40) 9.4 (00:00) 13.3 8.33 (11:30) 3.33 (01:10) 0 0 0 0 0
13-11-2020 17.1 (14:30) 9.4 (00:00) 13.3 8.33 (06:00) 3.06 (04:40) 0 0 0 0 0
12-11-2020 19.9 (14:20) 9 (00:00) 14.4 4.17 (07:10) 2.22 (19:30) 0 0 0 0 0
11-11-2020 16.7 (14:20) 7.7 (00:00) 12.2 9.72 (14:40) 3.06 (14:50) 0.2 0 0.2 0 0
10-11-2020 14.5 (12:40) 8.5 (00:00) 11.5 3.33 (14:40) 2.5 (23:40) 1.8 0 1.6 0.2 0
09-11-2020 18.1 (14:00) 10.2 (00:00) 14.2 6.67 (01:40) 2.22 (01:00) 0 0 0 0 0
08-11-2020 17.9 (14:30) 10.9 (00:00) 14.4 9.17 (21:20) 4.72 (10:20) 0 0 0 0 0
07-11-2020 17.5 (00:00) 11.7 (00:00) 14.6 12.5 (01:10) 4.17 (00:10) 23 0 23 0 0
06-11-2020 18.7 (14:00) 13.9 (00:00) 16.3 13.33 (20:40) 5.28 (12:50) 0 0 0 0 0
05-11-2020 17.3 (14:40) 4.6 (00:00) 10.9 8.33 (23:20) 2.78 (20:00) -- 0 -- 0 0
04-11-2020 9.8 (11:40) 5.1 (00:00) 7.5 6.11 (15:10) 2.5 (12:50) 1.8 1 0.8 0 0
03-11-2020 10.6 (00:00) 5.5 (00:00) 8.1 8.06 (14:50) 2.78 (12:10) 16.2 7.6 3.6 4.2 0.8
02-11-2020 21.8 (15:10) 10.6 (00:00) 16.2 9.72 (15:20) 3.61 (16:00) 3.4 0 0 1.4 2

Gráficas

Temp. máximas Temp. mínimas Temp. medias Precipitaciones Rachas de viento máximas Velocidades máximas media en intervalos de 10 minutos

Datos horarios

Fecha y hora oficial Temperatura (ºC) Velocidad del viento (km/h) Dirección del viento Racha (km/h) Dirección de racha Precipitación (mm) Presión (hPa) Tendencia (hPa) Humedad (%)
2020-12-01 23:00:00 7.8 4 Noroeste 19 Este 1.8 -- -- 95
2020-12-01 22:00:00 8.2 5 Norte 22 Nordeste 3.4 -- -- 97
2020-12-01 21:00:00 8.3 5 Noroeste 34 Noroeste 3.8 -- -- 97
2020-12-01 20:00:00 8.4 11 Noroeste 27 Oeste 0.2 -- -- 95
2020-12-01 19:00:00 8.9 11 Noroeste 35 Noroeste 0 -- -- 92
2020-12-01 18:00:00 8.9 9 Noroeste 20 Noroeste 0 -- -- 90
2020-12-01 17:00:00 9.1 7 Noroeste 18 Oeste 0 -- -- 84
2020-12-01 16:00:00 9.7 6 Noroeste 13 Noroeste 0 -- -- 82
2020-12-01 15:00:00 9.4 5 Oeste 12 Oeste 0 -- -- 83
2020-12-01 14:00:00 10 6 Noroeste 15 Oeste 0 -- -- 80
2020-12-01 13:00:00 9 4 Noroeste 12 Noroeste 0 -- -- 87
2020-12-01 12:00:00 8.7 3 Noroeste 8 Noroeste 0 -- -- 90
2020-12-01 11:00:00 7.4 0 Calma 4 Sudeste 0 -- -- 96
2020-12-01 10:00:00 6.3 0 Calma 5 Sur 0 -- -- 98
2020-12-01 09:00:00 5.3 2 Sur 4 Oeste 0 -- -- 97
2020-12-01 08:00:00 6 0 Calma 8 Oeste 0 -- -- 97
2020-12-01 07:00:00 6.2 4 Oeste 9 Noroeste 0 -- -- 98
2020-12-01 06:00:00 6.3 3 Norte 10 Noroeste 0 -- -- 97
2020-12-01 05:00:00 6.8 3 Noroeste 13 Oeste 0 -- -- 97
2020-12-01 04:00:00 7.1 0 Calma 9 Noroeste 0 -- -- 97
2020-12-01 03:00:00 7.1 3 Noroeste 9 Oeste 0 -- -- 96
2020-12-01 02:00:00 7.4 3 Noroeste 12 Noroeste 0 -- -- 96
2020-12-01 01:00:00 7.4 4 Noroeste 8 Oeste 0 -- -- 97
2020-12-01 00:00:00 7.2 2 Oeste 6 Oeste 0 -- -- 96
2020-11-30 23:00:00 7.4 3 Oeste 6 Oeste 0 -- -- 96
2020-11-30 22:00:00 7.7 3 Norte 6 Nordeste 0 -- -- 97
2020-11-30 21:00:00 7.8 3 Oeste 5 Oeste 0 -- -- 93
2020-11-30 20:00:00 9.3 2 Oeste 8 Oeste 0 -- -- 91
2020-11-30 19:00:00 9.8 2 Noroeste 5 Norte 0 -- -- 91
2020-11-30 18:00:00 10 2 Noroeste 9 Nordeste 0 -- -- 90
2020-11-30 17:00:00 10.4 3 Norte 14 Norte 0 -- -- 89
2020-11-30 16:00:00 11 3 Norte 10 Nordeste 0 -- -- 85
2020-11-30 15:00:00 11.8 5 Norte 10 Norte 0 -- -- 81
2020-11-30 14:00:00 12.6 3 Norte 11 Nordeste 0 -- -- 79
2020-11-30 13:00:00 12.6 2 Noroeste 12 Nordeste 0 -- -- 77
2020-11-30 12:00:00 11.4 3 Norte 9 Nordeste 0 -- -- 80
2020-11-30 11:00:00 8.9 2 Sudeste 8 Sur 0 -- -- 88
2020-11-30 10:00:00 7.8 3 Sur 8 Sudeste 0 -- -- 91
2020-11-30 09:00:00 6.8 4 Sur 9 Sur 0 -- -- 93
2020-11-30 08:00:00 7 3 Sur 8 Sur 0 -- -- 92
2020-11-30 07:00:00 7.3 5 Sur 9 Sudeste 0 -- -- 91
2020-11-30 06:00:00 7.3 4 Sur 7 Sur 0 -- -- 91
2020-11-30 05:00:00 7.5 4 Sur 8 Sudeste 0 -- -- 90
2020-11-30 04:00:00 7.9 5 Sudeste 8 Sudeste 0 -- -- 89
2020-11-30 03:00:00 8 4 Sur 9 Sudeste 0 -- -- 87
2020-11-30 02:00:00 8 4 Sur 7 Sudoeste 0 -- -- 89
2020-11-30 01:00:00 8.1 4 Sur 8 Sudeste 0 -- -- 88
2020-11-30 00:00:00 8.3 4 Sur 7 Sudeste 0 -- -- 89
2020-11-29 23:00:00 8.7 5 Sur 8 Sur 0 -- -- 86
2020-11-29 22:00:00 9.1 3 Sudoeste 7 Sur 0 -- -- 84
2020-11-29 21:00:00 9.7 3 Sur 6 Sur 0 -- -- 79
2020-11-29 20:00:00 9.8 3 Sur 7 Sudoeste 0 -- -- 80
2020-11-29 19:00:00 10.2 4 Sudoeste 6 Sur 0 -- -- 80
2020-11-29 18:00:00 10.6 4 Sudoeste 6 Sudoeste 0 -- -- 81
2020-11-29 17:00:00 11.5 3 Sudoeste 6 Sudoeste 0 -- -- 79
2020-11-29 16:00:00 12 3 Sudoeste 5 Sudoeste 0 -- -- 79
2020-11-29 15:00:00 13.1 3 Sudoeste 8 Sur 0 -- -- 71
2020-11-29 14:00:00 15 3 Sur 8 Sur 0 -- -- 66
2020-11-29 13:00:00 14.4 4 Sudeste 10 Sudeste 0 -- -- 66
2020-11-29 12:00:00 12.9 5 Sudeste 11 Sudeste 0 -- -- 71
2020-11-29 11:00:00 10.8 6 Sudeste 11 Sudeste 0 -- -- 79
2020-11-29 10:00:00 9.7 6 Sudeste 12 Sudeste 0 -- -- 82
2020-11-29 09:00:00 8.1 4 Sur 7 Sur 0 -- -- 88
2020-11-29 08:00:00 8.1 2 Sudeste 12 Sudeste 0 -- -- 86
2020-11-29 07:00:00 7.6 4 Sur 7 Sudoeste 0 -- -- 88
2020-11-29 06:00:00 7.9 4 Sur 8 Sur 0 -- -- 86
2020-11-29 05:00:00 8.3 3 Sur 12 Sudeste 0 -- -- 84
2020-11-29 04:00:00 8.5 3 Sur 15 Sudeste 0 -- -- 83
2020-11-29 03:00:00 8.9 6 Sur 13 Sudeste 0 -- -- 80
2020-11-29 02:00:00 9.1 4 Sur 10 Sudeste 0 -- -- 79
2020-11-29 01:00:00 8.2 4 Sur 7 Sudoeste 0 -- -- 84
2020-11-29 00:00:00 8.4 4 Sur 7 Sudoeste 0 -- -- 82
2020-11-28 23:00:00 9 4 Sudoeste 8 Sur 0 -- -- 80
2020-11-28 22:00:00 9 3 Sur 9 Sudeste 0 -- -- 80
2020-11-28 21:00:00 9.7 5 Sur 14 Sur 0 -- -- 76
2020-11-28 20:00:00 10.4 4 Sur 13 Sur 0 -- -- 74
2020-11-28 19:00:00 9.6 3 Sudoeste 9 Sur 0 -- -- 78
2020-11-28 18:00:00 10.4 3 Sudoeste 12 Sudeste 0 -- -- 76
2020-11-28 17:00:00 10.7 3 Sudoeste 6 Sudoeste 0 -- -- 81
2020-11-28 16:00:00 11.8 3 Sudoeste 6 Sudoeste 0 -- -- 78
2020-11-28 15:00:00 13 4 Sudoeste 7 Sudeste 0 -- -- 71
2020-11-28 14:00:00 14.8 2 Sudeste 11 Sudeste 0 -- -- 67
2020-11-28 13:00:00 13.8 5 Sudeste 11 Sudeste 0 -- -- 68
2020-11-28 12:00:00 10.6 3 Sur 8 Sudeste 0 -- -- 82
2020-11-28 11:00:00 9.4 5 Sur 9 Sur 0 -- -- 84
2020-11-28 10:00:00 8.4 5 Sur 10 Sur 0 -- -- 89
2020-11-28 09:00:00 7.6 3 Sur 8 Sur 0 -- -- 89
2020-11-28 08:00:00 7.5 4 Sur 6 Sudeste 0 -- -- 90
2020-11-28 07:00:00 8 3 Sur 7 Sur 0 -- -- 87
2020-11-28 06:00:00 8.1 4 Sur 6 Sur 0 -- -- 87
2020-11-28 05:00:00 8.4 3 Sudoeste 8 Sur 0 -- -- 85
2020-11-28 04:00:00 9.3 4 Sur 9 Sudeste 0 -- -- 85
2020-11-28 03:00:00 9 3 Sur 9 Sur 0 -- -- 82
2020-11-28 02:00:00 9.5 3 Sur 8 Sur 0 -- -- 82
2020-11-28 01:00:00 9.3 3 Sur 8 Sur 0 -- -- 82
2020-11-28 00:00:00 10.4 5 Sudeste 8 Sudeste 0 -- -- 79
2020-11-27 23:00:00 10.3 3 Sudoeste 5 Sudoeste 0 -- -- 82
2020-11-27 22:00:00 9.6 3 Sudoeste 5 Sudoeste 0 -- -- 83
2020-11-27 21:00:00 9.6 4 Sudoeste 6 Sudoeste 0 -- -- 84
2020-11-27 20:00:00 10.1 3 Sudoeste 6 Sudoeste 0 -- -- 82
2020-11-27 19:00:00 10.5 3 Oeste 5 Sudoeste 0 -- -- 81
2020-11-27 18:00:00 11.8 2 Sudoeste 4 Oeste 0 -- -- 76
2020-11-27 17:00:00 13.1 3 Sudoeste 6 Sudoeste 0 -- -- 72
2020-11-27 16:00:00 14.8 2 Sudoeste 8 Sudeste 0 -- -- 69
2020-11-27 15:00:00 15.4 3 Este 13 Sudeste 0 -- -- 62
2020-11-27 14:00:00 15.3 4 Sudeste 17 Sudeste 0 -- -- 63
2020-11-27 13:00:00 15.4 7 Sudeste 15 Sudeste 0 -- -- 64
2020-11-27 12:00:00 14 3 Sudeste 16 Sudeste 0 -- -- 71
2020-11-27 11:00:00 12.3 4 Sur 12 Sudeste 0 -- -- 78
2020-11-27 10:00:00 11.9 4 Sudeste 10 Sudeste 0 -- -- 78
2020-11-27 09:00:00 12 3 Sur 16 Este 0 -- -- 75
2020-11-27 08:00:00 12.4 5 Sudeste 17 Sudeste 0 -- -- 74
2020-11-27 07:00:00 13.2 7 Sudeste 20 Este 0 -- -- 71
2020-11-27 06:00:00 13.3 9 Sudeste 21 Sudeste 0 -- -- 69
2020-11-27 05:00:00 13.1 5 Sudeste 21 Sudeste 0 -- -- 69
2020-11-27 04:00:00 13.5 7 Sudeste 30 Sudeste 0 -- -- 68
2020-11-27 03:00:00 13.8 10 Sudeste 49 Sur 0 -- -- 67
2020-11-27 02:00:00 13.8 14 Sudeste 45 Sudeste 0 -- -- 67
2020-11-27 01:00:00 13.9 18 Sudeste 40 Sudeste 0 -- -- 67
2020-11-27 00:00:00 13.7 14 Sudeste 31 Sudeste 0 -- -- 68
2020-11-26 23:00:00 13.4 9 Sur 22 Sur 0 -- -- 69
2020-11-26 22:00:00 13.2 10 Sudeste 21 Sudeste 0 -- -- 68
2020-11-26 21:00:00 13.2 8 Sur 23 Sudeste 0 -- -- 68
2020-11-26 20:00:00 13.1 9 Sudeste 35 Sudeste 0 -- -- 68
2020-11-26 19:00:00 13.3 9 Sudeste 30 Sudeste 0 -- -- 67
2020-11-26 18:00:00 13.2 9 Sudeste 21 Sur 0 -- -- 68
2020-11-26 17:00:00 13.5 4 Sur 19 Sur 0 -- -- 69
2020-11-26 16:00:00 13.8 6 Sudeste 26 Sudeste 0 -- -- 66
2020-11-26 15:00:00 14.4 11 Sudeste 30 Sudeste 0 -- -- 64
2020-11-26 14:00:00 15.2 12 Sudeste 33 Sudeste 0 -- -- 60
2020-11-26 13:00:00 14.9 7 Sudeste 23 Este 0 -- -- 60
2020-11-26 12:00:00 14.4 8 Sudeste 28 Sudeste 0 -- -- 61
2020-11-26 11:00:00 13 10 Sudeste 32 Sudeste 0 -- -- 66
2020-11-26 10:00:00 12.5 11 Sudeste 29 Este 0 -- -- 67
2020-11-26 09:00:00 12 10 Sudeste 27 Sudeste 0 -- -- 67
2020-11-26 08:00:00 11.6 9 Sudeste 23 Sudeste 0 -- -- 69
2020-11-26 07:00:00 10.9 10 Sudeste 35 Sudeste 0 -- -- 71
2020-11-26 06:00:00 10.7 12 Sudeste 32 Sur 0 -- -- 72
2020-11-26 05:00:00 11.1 13 Sudeste 25 Sur 0 -- -- 70
2020-11-26 04:00:00 10.6 6 Sudeste 13 Sudeste 0 -- -- 74
2020-11-26 03:00:00 10.3 4 Sur 22 Sudeste 0 -- -- 75
2020-11-26 02:00:00 11 10 Sudeste 26 Sudeste 0 -- -- 72
2020-11-26 01:00:00 10.5 7 Sur 23 Este 0 -- -- 72
2020-11-26 00:00:00 10.7 7 Sudeste 26 Este 0 -- -- 68
2020-11-25 23:00:00 10.9 10 Sudeste 26 Sudeste 0 -- -- 66
2020-11-25 22:00:00 10.7 9 Sudeste 25 Sur 0 -- -- 69
2020-11-25 21:00:00 9.8 6 Sudeste 24 Sudeste 0 -- -- 73
2020-11-25 20:00:00 9 5 Sudeste 17 Sudeste 0 -- -- 72
2020-11-25 19:00:00 10 5 Sudeste 15 Sur 0 -- -- 68
2020-11-25 18:00:00 8.9 4 Sudoeste 12 Sudoeste 0 -- -- 74
2020-11-25 17:00:00 11.1 8 Sur 19 Sudeste 0 -- -- 62
2020-11-25 16:00:00 11.6 6 Sudeste 24 Oeste 0 -- -- 61
2020-11-25 15:00:00 12 6 Sudeste 24 Sur 0 -- -- 60
2020-11-25 14:00:00 12.6 6 Sudeste 24 Sudeste 0 -- -- 59
2020-11-25 13:00:00 12.2 9 Sudeste 25 Sur 0 -- -- 59
2020-11-25 12:00:00 11.4 8 Sudeste 24 Sudeste 0 -- -- 64
2020-11-25 11:00:00 9.6 8 Sudeste 20 Sudeste 0 -- -- 72
2020-11-25 10:00:00 8.4 6 Sur 18 Sur 0 -- -- 76
2020-11-25 09:00:00 7.7 2 Sur 23 Sur 0 -- -- 78
2020-11-25 08:00:00 7.8 5 Sur 18 Sudeste 0 -- -- 78
2020-11-25 07:00:00 8.2 6 Sudeste 23 Sudeste 0 -- -- 77
2020-11-25 06:00:00 8 5 Sudeste 19 Sudeste 0 -- -- 76
2020-11-25 05:00:00 8.8 9 Sudeste 26 Sudeste 0 -- -- 72
2020-11-25 04:00:00 9.1 11 Sudeste 23 Sudeste 0 -- -- 69
2020-11-25 03:00:00 9.5 11 Sudeste 28 Sudeste 0 -- -- 66
2020-11-25 02:00:00 9.2 8 Sudeste 19 Sur 0 -- -- 66
2020-11-25 01:00:00 9.7 9 Sudeste 19 Sudeste 0 -- -- 63
2020-11-25 00:00:00 9.3 9 Sudeste 19 Sudeste 0 -- -- 63
2020-11-24 23:00:00 9.3 6 Sudeste 16 Sur 0 -- -- 62
2020-11-24 22:00:00 10 8 Sudeste 21 Sudeste 0 -- -- 58
2020-11-24 21:00:00 10.2 8 Sudeste 21 Sur 0 -- -- 58
2020-11-24 20:00:00 9.5 5 Sur 14 Sudeste 0 -- -- 63
2020-11-24 19:00:00 10.2 5 Sur 14 Sur 0 -- -- 63
2020-11-24 18:00:00 10.5 4 Sur 12 Sur 0 -- -- 63
2020-11-24 17:00:00 11.7 3 Sur 12 Sur 0 -- -- 63
2020-11-24 16:00:00 12.7 3 Sur 9 Sudeste 0 -- -- 60
2020-11-24 15:00:00 14 3 Sur 9 Sur 0 -- -- 52
2020-11-24 14:00:00 14.1 3 Sudeste 13 Este 0 -- -- 47
2020-11-24 13:00:00 12.5 3 Sudeste 14 Sudeste 0 -- -- 58
2020-11-24 12:00:00 11.3 4 Sudeste 14 Este 0 -- -- 54
2020-11-24 11:00:00 11.7 4 Este 11 Sudeste 0 -- -- 55
2020-11-24 10:00:00 9.1 4 Sur 13 Sudeste 0 -- -- 65
2020-11-24 09:00:00 8.8 7 Sudeste 15 Sudeste 0 -- -- 56
2020-11-24 08:00:00 9.8 6 Sur 26 Sudeste 0 -- -- 50
2020-11-24 07:00:00 5.6 9 Sudeste 21 Sudeste 0 -- -- 74
2020-11-24 06:00:00 6.2 8 Sudeste 18 Sudeste 0 -- -- 71
2020-11-24 05:00:00 6 9 Sudeste 17 Sudeste 0 -- -- 73
2020-11-24 04:00:00 5.7 8 Sur 13 Sur 0 -- -- 75
2020-11-24 03:00:00 6.1 6 Sur 13 Sudeste 0 -- -- 75
2020-11-24 02:00:00 6.3 6 Sudeste 13 Sudeste 0 -- -- 77
2020-11-24 01:00:00 6.5 4 Sur 13 Sudeste 0 -- -- 77
2020-11-24 00:00:00 6.7 6 Sur 12 Sudeste 0 -- -- 75
2020-11-23 23:00:00 6.6 4 Sudoeste 9 Sudeste 0 -- -- 79
2020-11-23 22:00:00 7.4 5 Sudeste 8 Sudeste 0 -- -- 77
2020-11-23 21:00:00 7.8 6 Sur 8 Sudeste 0 -- -- 76
2020-11-23 20:00:00 7.9 5 Sur 7 Sudeste 0 -- -- 74
2020-11-23 19:00:00 7.3 3 Sur 5 Sudoeste 0 -- -- 66
2020-11-23 18:00:00 7.6 3 Oeste 5 Sudoeste 0 -- -- 71
2020-11-23 17:00:00 9.2 4 Sudoeste 5 Sudoeste 0 -- -- 72
2020-11-23 16:00:00 10.6 3 Sudoeste 7 Oeste 0 -- -- 69
2020-11-23 15:00:00 11.5 2 Oeste 6 Noroeste 0 -- -- 59
2020-11-23 14:00:00 12.4 2 Sudeste 5 Sudeste 0 -- -- 64
2020-11-23 13:00:00 10.7 2 Sur 6 Sudeste 0 -- -- 62
2020-11-23 12:00:00 9.4 4 Sudeste 9 Sur 0 -- -- 70
2020-11-23 11:00:00 6.5 6 Sudeste 10 Sudeste 0 -- -- 86
2020-11-23 10:00:00 5 5 Sudeste 11 Sudeste 0 -- -- 95
2020-11-23 09:00:00 4.3 6 Sudeste 10 Sudeste 0 -- -- 97
2020-11-23 08:00:00 4 3 Sur 8 Sudeste 0 -- -- 95
2020-11-23 07:00:00 4.2 4 Sudeste 8 Sudeste 0 -- -- 96
2020-11-23 06:00:00 4.2 4 Sur 7 Sur 0 -- -- 95
2020-11-23 05:00:00 5.1 4 Sur 8 Sudeste 0 -- -- 96
2020-11-23 04:00:00 5.3 3 Sur 8 Sudeste 0 -- -- 97
2020-11-23 03:00:00 5.8 4 Sudeste 8 Sudeste 0 -- -- 96
2020-11-23 02:00:00 6.2 4 Sudeste 9 Norte 0 -- -- 94
2020-11-23 01:00:00 6.9 2 Noroeste 8 Oeste 0 -- -- 96
2020-11-23 00:00:00 7.8 3 Noroeste 8 Oeste 0 -- -- 97
2020-11-22 23:00:00 7.7 0 Calma 6 Norte 0 -- -- 97
2020-11-22 22:00:00 7.5 0 Calma 8 Noroeste 0 -- -- 98
2020-11-22 21:00:00 6.2 2 Oeste 4 Oeste 0 -- -- 95
2020-11-22 20:00:00 6.3 3 Oeste 7 Noroeste 0 -- -- 92
2020-11-22 19:00:00 6.7 3 Oeste 6 Oeste 0 -- -- 87
2020-11-22 18:00:00 7.7 4 Oeste 10 Noroeste 0 -- -- 81
2020-11-22 17:00:00 9 5 Oeste 7 Noroeste 0 -- -- 76
2020-11-22 16:00:00 10.5 4 Oeste 7 Oeste 0 -- -- 66
2020-11-22 15:00:00 11.6 4 Oeste 8 Noroeste 0 -- -- 63
2020-11-22 14:00:00 13.7 0 Calma 8 Sudeste 0 -- -- 57
2020-11-22 13:00:00 12.1 4 Sudeste 10 Sudeste 0 -- -- 55
2020-11-22 12:00:00 10.3 4 Sudeste 11 Sudeste 0 -- -- 58
2020-11-22 11:00:00 7.1 5 Sur 12 Sudeste 0 -- -- 63
2020-11-22 10:00:00 5.6 8 Sudeste 12 Sudeste 0 -- -- 68
2020-11-22 09:00:00 4 5 Sudoeste 12 Sur 0 -- -- 75
2020-11-22 08:00:00 3.8 6 Sur 14 Sur 0 -- -- 73
2020-11-22 07:00:00 4.2 6 Sur 16 Sudeste 0 -- -- 70
2020-11-22 06:00:00 4.7 6 Sur 17 Sudeste 0 -- -- 70
2020-11-22 05:00:00 5.1 10 Sudeste 20 Sudeste 0 -- -- 65
2020-11-22 04:00:00 5.1 10 Sudeste 19 Sudeste 0 -- -- 70
2020-11-22 03:00:00 4.5 5 Sur 14 Sudeste 0 -- -- 75
2020-11-22 02:00:00 4.4 6 Sur 15 Sudeste 0 -- -- 78
2020-11-22 01:00:00 4.4 8 Sur 13 Sudeste 0 -- -- 90
2020-11-22 00:00:00 5.5 8 Sur 11 Sur 0 -- -- 81
2020-11-21 23:00:00 5.6 4 Sur 10 Sur 0 -- -- 81
2020-11-21 22:00:00 5.3 5 Sur 13 Sudeste 0 -- -- 85
2020-11-21 21:00:00 5.8 6 Sur 12 Sudeste 0 -- -- 84
2020-11-21 20:00:00 5.3 6 Sur 11 Sudeste 0 -- -- 85
2020-11-21 19:00:00 5.2 4 Sur 8 Sur 0 -- -- 88
2020-11-21 18:00:00 5.7 4 Oeste 7 Sudoeste 0 -- -- 88
2020-11-21 17:00:00 6.7 4 Oeste 9 Noroeste 0 -- -- 84
2020-11-21 16:00:00 8.1 4 Oeste 8 Oeste 0 -- -- 74
2020-11-21 15:00:00 9.2 3 Sudoeste 6 Sudoeste 0 -- -- 65
2020-11-21 14:00:00 10.8 0 Calma 6 Sur 0 -- -- 62
2020-11-21 13:00:00 10 3 Sudeste 7 Este 0 -- -- 63
2020-11-21 12:00:00 8.7 3 Sudeste 8 Sudeste 0 -- -- 65
2020-11-21 11:00:00 5.9 3 Sudeste 7 Sudeste 0 -- -- 82
2020-11-21 10:00:00 3.4 0 Calma 4 Sudoeste 0 -- -- 94
2020-11-21 09:00:00 2.9 3 Sudoeste 6 Sudoeste 0 -- -- 93
2020-11-21 08:00:00 2.8 3 Sudoeste 8 Oeste 0 -- -- 93
2020-11-21 07:00:00 2.1 3 Oeste 5 Oeste 0 -- -- 97
2020-11-21 06:00:00 2.2 3 Sudoeste 4 Sudoeste 0 -- -- 96
2020-11-21 05:00:00 2.6 3 Sur 6 Sur 0 -- -- 95
2020-11-21 04:00:00 2.8 2 Sudoeste 6 Sur 0 -- -- 95
2020-11-21 03:00:00 3.1 3 Sudoeste 5 Sudoeste 0 -- -- 96
2020-11-21 02:00:00 3.5 3 Sudoeste 5 Sudoeste 0 -- -- 97
2020-11-21 01:00:00 4.1 0 Calma 4 Sudoeste 0 -- -- 96
2020-11-21 00:00:00 4.8 4 Sur 9 Sudeste 0 -- -- 96
2020-11-20 23:00:00 4.9 3 Oeste 5 Sudoeste 0.2 -- -- 96
2020-11-20 22:00:00 5.4 4 Sudoeste 5 Sudoeste 0 -- -- 95
2020-11-20 21:00:00 4.9 3 Oeste 6 Sudoeste 0 -- -- 94
2020-11-20 20:00:00 5.6 3 Sudoeste 10 Sudeste 0 -- -- 89
2020-11-20 19:00:00 5.8 3 Este 11 Sudeste 0 -- -- 87
2020-11-20 18:00:00 6.9 4 Este 15 Sudeste 0 -- -- 83
2020-11-20 17:00:00 7.9 3 Este 17 Este 0 -- -- 80
2020-11-20 16:00:00 9.3 6 Sudeste 19 Este 0 -- -- 77
2020-11-20 15:00:00 10.1 5 Nordeste 18 Este 0 -- -- 78
2020-11-20 14:00:00 10.3 4 Nordeste 13 Nordeste 0 -- -- 80
2020-11-20 13:00:00 9.7 4 Norte 9 Norte 0 -- -- 82
2020-11-20 12:00:00 9.1 2 Noroeste 7 Oeste 0 -- -- 91
2020-11-20 11:00:00 8.8 2 Nordeste 6 Nordeste 0.2 -- -- 97
2020-11-20 10:00:00 8.1 2 Noroeste 6 Sur 0.2 -- -- 99
2020-11-20 09:00:00 6.9 4 Sudeste 10 Sur 0.2 -- -- 99
2020-11-20 08:00:00 6.2 2 Oeste 9 Oeste 0 -- -- 99
2020-11-20 07:00:00 6 3 Oeste 6 Norte 0 -- -- 98
2020-11-20 06:00:00 6.3 3 Noroeste 8 Noroeste 0 -- -- 98
2020-11-20 05:00:00 6.1 0 Calma 4 Oeste 0 -- -- 97
2020-11-20 04:00:00 6.9 0 Calma 6 Este 0 -- -- 97
2020-11-20 03:00:00 7.5 0 Calma 9 Noroeste 0 -- -- 98
2020-11-20 02:00:00 7.5 4 Noroeste 9 Noroeste 0.2 -- -- 98
2020-11-20 01:00:00 7.5 3 Oeste 6 Oeste 0 -- -- 96
2020-11-20 00:00:00 7.9 2 Oeste 7 Sudoeste 0 -- -- 98
2020-11-19 23:00:00 7.8 0 Calma 6 Oeste 0 -- -- 98
2020-11-19 22:00:00 7.9 3 Oeste 6 Oeste 0 -- -- 98
2020-11-19 21:00:00 7.9 2 Noroeste 6 Noroeste 0 -- -- 97
2020-11-19 20:00:00 8 3 Oeste 9 Oeste 0 -- -- 97
2020-11-19 19:00:00 8.2 3 Oeste 10 Noroeste 0.2 -- -- 97
2020-11-19 18:00:00 8.3 3 Norte 19 Noroeste 0.2 -- -- 97
2020-11-19 17:00:00 8.6 4 Norte 17 Noroeste 0.4 -- -- 96
2020-11-19 16:00:00 9.2 4 Norte 12 Norte 0.4 -- -- 96
2020-11-19 15:00:00 9.2 6 Norte 21 Noroeste 0.4 -- -- 94
2020-11-19 14:00:00 10.1 4 Norte 16 Nordeste 0 -- -- 95
2020-11-19 13:00:00 10.3 7 Norte 15 Norte 0.4 -- -- 96
2020-11-19 12:00:00 10.4 6 Norte 19 Norte 0.4 -- -- 97
2020-11-19 11:00:00 10.8 3 Norte 15 Nordeste 0.4 -- -- 96
2020-11-19 10:00:00 11.5 3 Norte 19 Norte 0.8 -- -- 96
2020-11-19 09:00:00 12.1 5 Noroeste 20 Norte 0.4 -- -- 97
2020-11-19 08:00:00 12.3 3 Noroeste 9 Noroeste 0.4 -- -- 97
2020-11-19 07:00:00 12.2 0 Calma 7 Sudoeste 0 -- -- 96
2020-11-19 06:00:00 12.2 4 Oeste 17 Noroeste 0 -- -- 94
2020-11-19 05:00:00 12.7 11 Oeste 24 Noroeste 0 -- -- 87
2020-11-19 04:00:00 11.7 0 Calma 7 Sur 0 -- -- 91
2020-11-19 03:00:00 11.7 5 Sudeste 8 Sudeste 0 -- -- 89
2020-11-19 02:00:00 11.4 4 Sur 9 Sudeste 0 -- -- 87
2020-11-19 01:00:00 11.8 5 Sudeste 9 Sudeste 0 -- -- 87
2020-11-19 00:00:00 12.3 5 Sudeste 8 Sudeste 0 -- -- 86
2020-11-18 23:00:00 12.2 3 Sur 7 Sudeste 0 -- -- 83
2020-11-18 22:00:00 12.2 2 Sudoeste 6 Sur 0 -- -- 85
2020-11-18 21:00:00 12.8 3 Sur 5 Sur 0 -- -- 83
2020-11-18 20:00:00 13.5 2 Sudoeste 6 Sur 0 -- -- 80
2020-11-18 19:00:00 14 4 Sudoeste 6 Sudoeste 0 -- -- 80
2020-11-18 18:00:00 14.5 4 Sur 6 Sudoeste 0 -- -- 77
2020-11-18 17:00:00 15.3 4 Sudoeste 8 Sudoeste 0 -- -- 73
2020-11-18 16:00:00 17.2 3 Sur 10 Sudeste 0 -- -- 66
2020-11-18 15:00:00 18.8 4 Sudeste 9 Sudeste 0 -- -- 62
2020-11-18 14:00:00 19.9 2 Sur 7 Sudeste 0 -- -- 58
2020-11-18 13:00:00 19.3 2 Sudeste 11 Sudeste 0 -- -- 54
2020-11-18 12:00:00 17.7 4 Sur 12 Sudeste 0 -- -- 61
2020-11-18 11:00:00 15.5 3 Sudeste 7 Sudeste 0 -- -- 66
2020-11-18 10:00:00 13 3 Sur 15 Noroeste 0 -- -- 73
2020-11-18 09:00:00 13.4 6 Sudoeste 17 Oeste 0 -- -- 64
2020-11-18 08:00:00 13.8 3 Sudoeste 29 Sudoeste 0 -- -- 63
2020-11-18 07:00:00 15.1 7 Sudoeste 26 Sudoeste 0 -- -- 55
2020-11-18 06:00:00 15.6 8 Sudoeste 25 Sudoeste 0 -- -- 52
2020-11-18 05:00:00 15.7 8 Oeste 27 Sudoeste 0 -- -- 53
2020-11-18 04:00:00 15.1 4 Sur 21 Sudoeste 0 -- -- 50
2020-11-18 03:00:00 13.5 6 Noroeste 19 Oeste 0 -- -- 56
2020-11-18 02:00:00 12.8 5 Sur 12 Este 0 -- -- 58
2020-11-18 01:00:00 14 5 Sudoeste 13 Sur 0 -- -- 52
2020-11-18 00:00:00 14.8 4 Sur 32 Sudeste 0 -- -- 54
2020-11-17 23:00:00 14.8 3 Norte 17 Sur 0 -- -- 59
2020-11-17 22:00:00 15.4 4 Sur 19 Sur 0 -- -- 52
2020-11-17 21:00:00 14.4 4 Sur 18 Sudeste 0 -- -- 59
2020-11-17 20:00:00 14.6 7 Sur 17 Sudoeste 0 -- -- 61
2020-11-17 19:00:00 14.9 5 Sur 15 Sudeste 0 -- -- 62
2020-11-17 18:00:00 16.3 5 Sur 16 Sudeste 0 -- -- 54
2020-11-17 17:00:00 14.1 4 Sur 10 Sudeste 0 -- -- 61
2020-11-17 16:00:00 15.6 5 Sudoeste 11 Sur 0 -- -- 61
2020-11-17 15:00:00 16.1 3 Sur 13 Sudeste 0 -- -- 67
2020-11-17 14:00:00 16.3 7 Sudeste 14 Sudeste 0 -- -- 65
2020-11-17 13:00:00 15.5 4 Sur 11 Sur 0 -- -- 70
2020-11-17 12:00:00 12.9 5 Sudeste 15 Sur 0 -- -- 74
2020-11-17 11:00:00 10.9 8 Sudeste 14 Sudeste 0 -- -- 78
2020-11-17 10:00:00 8.3 8 Sudeste 15 Sudeste 0 -- -- 88
2020-11-17 09:00:00 7.1 3 Sur 13 Sur 0 -- -- 91
2020-11-17 08:00:00 6.3 6 Sur 12 Sur 0 -- -- 94
2020-11-17 07:00:00 5.7 4 Sur 14 Sudoeste 0 -- -- 96
2020-11-17 06:00:00 6.3 7 Sur 14 Sur 0 -- -- 95
2020-11-17 05:00:00 6.2 6 Sur 12 Sur 0 -- -- 97
2020-11-17 04:00:00 6.3 6 Sur 12 Sudeste 0 -- -- 98
2020-11-17 03:00:00 6.4 8 Sur 12 Sudeste 0 -- -- 95
2020-11-17 02:00:00 7.1 5 Sur 11 Sudeste 0 -- -- 97
2020-11-17 01:00:00 7.4 7 Sur 10 Sur 0 -- -- 96
2020-11-17 00:00:00 7.6 4 Sur 10 Sudeste 0 -- -- 97
2020-11-16 23:00:00 7.8 5 Sur 7 Sudeste 0 -- -- 96
2020-11-16 22:00:00 7.9 3 Sur 7 Sudeste 0 -- -- 96
2020-11-16 21:00:00 8.2 5 Sudeste 7 Sudeste 0 -- -- 96
2020-11-16 20:00:00 8.3 3 Sur 5 Sur 0 -- -- 96
2020-11-16 19:00:00 8.3 3 Sudoeste 5 Sudoeste 0.2 -- -- 94
2020-11-16 18:00:00 9.4 4 Sudoeste 6 Sudoeste 0 -- -- 93
2020-11-16 17:00:00 11 3 Sudoeste 9 Sudeste 0 -- -- 89
2020-11-16 16:00:00 13.2 0 Calma 8 Nordeste 0 -- -- 82
2020-11-16 15:00:00 12.7 2 Noroeste 6 Norte 0 -- -- 87
2020-11-16 14:00:00 12.7 3 Norte 7 Oeste 0 -- -- 82
2020-11-16 13:00:00 12.3 2 Noroeste 7 Oeste 0 -- -- 88
2020-11-16 12:00:00 11.8 0 Calma 7 Norte 0 -- -- 87
2020-11-16 11:00:00 10.3 0 Calma 10 Oeste 0.8 -- -- 97
2020-11-16 10:00:00 9.9 0 Calma 4 Sudeste 0.8 -- -- 98
2020-11-16 09:00:00 9.8 0 Calma 4 Sudeste 0 -- -- 98
2020-11-16 08:00:00 9.6 0 Calma 8 Noroeste 0.6 -- -- 98
2020-11-16 07:00:00 9.6 2 Noroeste 8 Noroeste 0.4 -- -- 98
2020-11-16 06:00:00 9.9 4 Noroeste 10 Noroeste 1.2 -- -- 97
2020-11-16 05:00:00 10.1 0 Calma 11 Noroeste 0.8 -- -- 97
2020-11-16 04:00:00 10.1 4 Noroeste 17 Oeste 0 -- -- 97
2020-11-16 03:00:00 10.2 5 Noroeste 14 Oeste 0 -- -- 97
2020-11-16 02:00:00 10.4 5 Noroeste 13 Oeste 0 -- -- 97
2020-11-16 01:00:00 10.4 4 Noroeste 14 Noroeste 0.6 -- -- 97
2020-11-16 00:00:00 10.5 2 Noroeste 13 Oeste 0.4 -- -- 97
2020-11-15 23:00:00 10.4 4 Oeste 20 Oeste 0.4 -- -- 96
2020-11-15 22:00:00 10.9 6 Noroeste 22 Noroeste 1.2 -- -- 96
2020-11-15 21:00:00 11.5 9 Noroeste 23 Noroeste 0.2 -- -- 96
2020-11-15 20:00:00 11.9 8 Noroeste 22 Noroeste 2.4 -- -- 97
2020-11-15 19:00:00 12.1 7 Noroeste 20 Noroeste 3.4 -- -- 96
2020-11-15 18:00:00 12.3 8 Noroeste 20 Noroeste 0.2 -- -- 95
2020-11-15 17:00:00 13.5 6 Noroeste 21 Noroeste 0 -- -- 94
2020-11-15 16:00:00 14.9 9 Noroeste 22 Noroeste 0 -- -- 89
2020-11-15 15:00:00 18.1 8 Noroeste 23 Noroeste 0 -- -- 71
2020-11-15 14:00:00 19.3 6 Norte 20 Noroeste 0 -- -- 62
2020-11-15 13:00:00 18.1 5 Nordeste 28 Norte 0 -- -- 66
2020-11-15 12:00:00 17.4 6 Este 28 Sur 0 -- -- 68
2020-11-15 11:00:00 16.7 6 Sudeste 31 Sudeste 0 -- -- 69
2020-11-15 10:00:00 16.2 9 Noroeste 32 Noroeste 0 -- -- 70
2020-11-15 09:00:00 15.7 4 Este 35 Noroeste 0 -- -- 73
2020-11-15 08:00:00 15.4 5 Sudoeste 24 Oeste 0 -- -- 72
2020-11-15 07:00:00 15.7 10 Oeste 43 Noroeste 0 -- -- 70
2020-11-15 06:00:00 15.5 8 Sur 34 Sudoeste 0 -- -- 69
2020-11-15 05:00:00 14.4 7 Oeste 27 Sudeste 0 -- -- 72
2020-11-15 04:00:00 14.3 5 Nordeste 19 Noroeste 0 -- -- 74
2020-11-15 03:00:00 14.7 5 Nordeste 24 Sur 0 -- -- 72
2020-11-15 02:00:00 14.3 5 Sur 18 Sur 0 -- -- 74
2020-11-15 01:00:00 14.2 5 Nordeste 22 Noroeste 0 -- -- 73
2020-11-15 00:00:00 13.1 5 Sudeste 18 Sur 0 -- -- 74
2020-11-14 23:00:00 13.7 5 Este 26 Noroeste 0 -- -- 70
2020-11-14 22:00:00 13.3 3 Norte 15 Sudeste 0 -- -- 71
2020-11-14 21:00:00 12.9 6 Sudoeste 21 Sudoeste 0 -- -- 72
2020-11-14 20:00:00 12.9 4 Sudoeste 22 Noroeste 0 -- -- 73
2020-11-14 19:00:00 14.7 6 Oeste 23 Sur 0 -- -- 64
2020-11-14 18:00:00 14.5 5 Sudeste 19 Sudeste 0 -- -- 66
2020-11-14 17:00:00 15.5 6 Sur 22 Sudeste 0 -- -- 63
2020-11-14 16:00:00 16.6 6 Este 26 Noroeste 0 -- -- 59
2020-11-14 15:00:00 16.7 7 Sudoeste 28 Sudoeste 0 -- -- 58
2020-11-14 14:00:00 16.6 4 Sudeste 26 Nordeste 0 -- -- 60
2020-11-14 13:00:00 15.7 5 Nordeste 23 Sudeste 0 -- -- 60
2020-11-14 12:00:00 16.1 6 Este 30 Sudeste 0 -- -- 58
2020-11-14 11:00:00 13 6 Este 19 Este 0 -- -- 68
2020-11-14 10:00:00 11.4 7 Sudeste 19 Este 0 -- -- 74
2020-11-14 09:00:00 10.6 8 Sudeste 18 Sur 0 -- -- 76
2020-11-14 08:00:00 9.7 6 Sudeste 22 Sudeste 0 -- -- 80
2020-11-14 07:00:00 9.7 9 Sudeste 23 Este 0 -- -- 81
2020-11-14 06:00:00 9.8 9 Sudeste 20 Sudeste 0 -- -- 81
2020-11-14 05:00:00 9.7 6 Este 20 Este 0 -- -- 81
2020-11-14 04:00:00 10.5 5 Sudoeste 24 Sudoeste 0 -- -- 76
2020-11-14 03:00:00 11.5 8 Sur 23 Sur 0 -- -- 71
2020-11-14 02:00:00 10.8 7 Sudoeste 26 Sur 0 -- -- 75
2020-11-14 01:00:00 10.3 11 Sudeste 24 Sudeste 0 -- -- 78
2020-11-14 00:00:00 10.2 5 Sudeste 18 Sudeste 0 -- -- 78
2020-11-13 23:00:00 10.9 7 Sudeste 23 Sudeste 0 -- -- 75
2020-11-13 22:00:00 10.9 7 Sudeste 16 Sudeste 0 -- -- 75
2020-11-13 21:00:00 11.6 7 Sudeste 14 Sudeste 0 -- -- 71
2020-11-13 20:00:00 11.8 7 Sur 21 Sur 0 -- -- 74
2020-11-13 19:00:00 13 6 Sur 22 Sur 0 -- -- 70
2020-11-13 18:00:00 13 5 Sudoeste 14 Sur 0 -- -- 68
2020-11-13 17:00:00 13.5 5 Sudeste 10 Sudeste 0 -- -- 71
2020-11-13 16:00:00 15.8 5 Sudeste 13 Sur 0 -- -- 61
2020-11-13 15:00:00 16.7 4 Sudeste 15 Sudeste 0 -- -- 59
2020-11-13 14:00:00 16.9 6 Sudeste 18 Sudeste 0 -- -- 60
2020-11-13 13:00:00 16.2 7 Sudeste 19 Sudeste 0 -- -- 61
2020-11-13 12:00:00 14.4 5 Sudeste 15 Este 0 -- -- 70
2020-11-13 11:00:00 11.7 6 Sudeste 15 Este 0 -- -- 78
2020-11-13 10:00:00 10 4 Sudeste 16 Sudeste 0 -- -- 83
2020-11-13 09:00:00 9.6 5 Sudeste 14 Este 0 -- -- 83
2020-11-13 08:00:00 9.8 5 Sudeste 14 Sudeste 0 -- -- 81
2020-11-13 07:00:00 11.6 8 Sudeste 25 Sudoeste 0 -- -- 70
2020-11-13 06:00:00 12.2 10 Sur 30 Sudeste 0 -- -- 66
2020-11-13 05:00:00 12 9 Sudeste 25 Sur 0 -- -- 67
2020-11-13 04:00:00 12 10 Sudeste 24 Sudeste 0 -- -- 66
2020-11-13 03:00:00 12.2 10 Sudeste 22 Sudeste 0 -- -- 63
2020-11-13 02:00:00 12.1 5 Sur 17 Este 0 -- -- 66
2020-11-13 01:00:00 11.9 6 Sudeste 19 Sudeste 0 -- -- 66
2020-11-13 00:00:00 12 7 Sudeste 14 Sudeste 0 -- -- 65
2020-11-12 23:00:00 11.4 5 Sur 14 Sudeste 0 -- -- 67
2020-11-12 22:00:00 11.2 5 Sudoeste 10 Sudeste 0 -- -- 69
2020-11-12 21:00:00 12.6 6 Sudeste 14 Sudeste 0 -- -- 64
2020-11-12 20:00:00 13 5 Sudeste 13 Sudeste 0 -- -- 66
2020-11-12 19:00:00 13.1 3 Sur 10 Sur 0 -- -- 71
2020-11-12 18:00:00 13.8 4 Sudoeste 8 Sudoeste 0 -- -- 74
2020-11-12 17:00:00 14.5 4 Sudoeste 7 Sudoeste 0 -- -- 73
2020-11-12 16:00:00 17.2 3 Sur 10 Sudoeste 0 -- -- 63
2020-11-12 15:00:00 18.4 0 Calma 4 Nordeste 0 -- -- 61
2020-11-12 14:00:00 19.5 0 Calma 6 Nordeste 0 -- -- 57
2020-11-12 13:00:00 18.4 3 Este 9 Sudeste 0 -- -- 56
2020-11-12 12:00:00 17.2 3 Sudeste 15 Este 0 -- -- 61
2020-11-12 11:00:00 14.4 3 Sudeste 10 Sudeste 0 -- -- 69
2020-11-12 10:00:00 12.2 4 Sudeste 12 Este 0 -- -- 75
2020-11-12 09:00:00 10.9 5 Sur 11 Sudeste 0 -- -- 78
2020-11-12 08:00:00 10 5 Sur 15 Sudeste 0 -- -- 80
2020-11-12 07:00:00 9.4 4 Sur 10 Sur 0 -- -- 81
2020-11-12 06:00:00 9.5 3 Sur 10 Sudeste 0 -- -- 82
2020-11-12 05:00:00 9.9 4 Sudeste 9 Sudeste 0 -- -- 80
2020-11-12 04:00:00 10 4 Sudoeste 11 Sudeste 0 -- -- 78
2020-11-12 03:00:00 10.5 4 Sur 9 Sur 0 -- -- 76
2020-11-12 02:00:00 11 3 Sur 8 Sur 0 -- -- 76
2020-11-12 01:00:00 10.7 4 Sur 12 Este 0 -- -- 75
2020-11-12 00:00:00 9.9 3 Sudeste 9 Sur 0 -- -- 78
2020-11-11 23:00:00 10.5 4 Sudoeste 6 Oeste 0 -- -- 76
2020-11-11 22:00:00 12.3 3 Norte 18 Oeste 0 -- -- 68
2020-11-11 21:00:00 11.9 2 Noroeste 19 Noroeste 0 -- -- 70
2020-11-11 20:00:00 12.5 2 Noroeste 23 Noroeste 0 -- -- 69
2020-11-11 19:00:00 12.9 5 Nordeste 14 Este 0 -- -- 62
2020-11-11 18:00:00 14.2 6 Norte 27 Nordeste 0 -- -- 59
2020-11-11 17:00:00 14.8 7 Nordeste 30 Este 0 -- -- 58
2020-11-11 16:00:00 15.3 5 Nordeste 24 Sudoeste 0 -- -- 55
2020-11-11 15:00:00 16.3 8 Oeste 35 Noroeste 0 -- -- 54
2020-11-11 14:00:00 16.4 6 Sur 18 Nordeste 0 -- -- 52
2020-11-11 13:00:00 15.9 9 Sudeste 22 Sudeste 0 -- -- 58
2020-11-11 12:00:00 15.5 7 Sudeste 22 Sudeste 0 -- -- 62
2020-11-11 11:00:00 13.7 6 Este 23 Sudoeste 0.2 -- -- 68
2020-11-11 10:00:00 11.5 9 Sudeste 19 Sudeste 0 -- -- 73
2020-11-11 09:00:00 10.4 7 Sudeste 18 Sudeste 0 -- -- 79
2020-11-11 08:00:00 9.5 3 Oeste 13 Sur 0 -- -- 84
2020-11-11 07:00:00 10.3 6 Sur 17 Sudeste 0 -- -- 80
2020-11-11 06:00:00 10.8 6 Sur 17 Sur 0 -- -- 79
2020-11-11 05:00:00 11.1 7 Sudeste 19 Sudeste 0 -- -- 79
2020-11-11 04:00:00 10.7 7 Sur 21 Sur 0 -- -- 85
2020-11-11 03:00:00 8.5 5 Sur 16 Sudeste 0 -- -- 100
2020-11-11 02:00:00 7.9 7 Sudeste 13 Sudeste 0 -- -- 99
2020-11-11 01:00:00 8.4 6 Sudeste 13 Sudeste 0 -- -- 99
2020-11-11 00:00:00 8.5 8 Sur 12 Sur 0 -- -- 99
2020-11-10 23:00:00 9.3 8 Sudeste 12 Sudeste 0 -- -- 98
2020-11-10 22:00:00 9.8 5 Sudeste 9 Sudeste 0 -- -- 98
2020-11-10 21:00:00 9.4 2 Sudeste 8 Sur 0 -- -- 96
2020-11-10 20:00:00 9.9 3 Sudeste 8 Sur 0 -- -- 96
2020-11-10 19:00:00 10.1 2 Sudeste 7 Sudeste 0 -- -- 94
2020-11-10 18:00:00 10.8 3 Sudoeste 5 Sur 0 -- -- 92
2020-11-10 17:00:00 11.9 2 Oeste 6 Sudoeste 0 -- -- 90
2020-11-10 16:00:00 13.5 0 Calma 6 Sudeste 0 -- -- 83
2020-11-10 15:00:00 12.7 4 Este 12 Nordeste 0 -- -- 88
2020-11-10 14:00:00 13.2 3 Norte 8 Nordeste 0 -- -- 89
2020-11-10 13:00:00 13.5 4 Norte 10 Oeste 0.2 -- -- 90
2020-11-10 12:00:00 13.3 4 Oeste 8 Oeste 0.2 -- -- 88
2020-11-10 11:00:00 12.2 3 Norte 6 Nordeste 0 -- -- 94
2020-11-10 10:00:00 11.5 0 Calma 7 Noroeste 0 -- -- 98
2020-11-10 09:00:00 10.9 0 Calma 4 Oeste 0.2 -- -- 97
2020-11-10 08:00:00 10.8 0 Calma 4 Sudoeste 1 -- -- 97
2020-11-10 07:00:00 11 0 Calma 9 Oeste 0.2 -- -- 96
2020-11-10 06:00:00 10.9 0 Calma 5 Oeste 0 -- -- 96
2020-11-10 05:00:00 11 0 Calma 4 Sudeste 0 -- -- 96
2020-11-10 04:00:00 10.8 2 Sur 5 Sudeste 0 -- -- 94
2020-11-10 03:00:00 10.8 2 Sudoeste 6 Sudeste 0 -- -- 95
2020-11-10 02:00:00 10.5 0 Calma 5 Noroeste 0 -- -- 96
2020-11-10 01:00:00 10.7 3 Norte 11 Noroeste 0 -- -- 95
2020-11-10 00:00:00 10.6 6 Noroeste 15 Noroeste 0 -- -- 95
2020-11-09 23:00:00 10.5 5 Noroeste 17 Oeste 0 -- -- 94
2020-11-09 22:00:00 10.6 3 Noroeste 11 Noroeste 0 -- -- 87
2020-11-09 21:00:00 10.2 2 Oeste 5 Oeste 0 -- -- 87
2020-11-09 20:00:00 11 4 Oeste 7 Oeste 0 -- -- 85
2020-11-09 19:00:00 11.5 4 Sudoeste 5 Sudoeste 0 -- -- 79
2020-11-09 18:00:00 12.2 4 Sudoeste 6 Sudoeste 0 -- -- 79
2020-11-09 17:00:00 13.3 4 Sudoeste 6 Sudoeste 0 -- -- 77
2020-11-09 16:00:00 15.5 4 Sudoeste 7 Sudoeste 0 -- -- 69
2020-11-09 15:00:00 15.3 2 Oeste 12 Norte 0 -- -- 70
2020-11-09 14:00:00 18.1 5 Norte 22 Oeste 0 -- -- 56
2020-11-09 13:00:00 17.4 7 Noroeste 21 Noroeste 0 -- -- 57
2020-11-09 12:00:00 16.6 5 Este 15 Sudeste 0 -- -- 58
2020-11-09 11:00:00 13.9 3 Sur 13 Sudeste 0 -- -- 71
2020-11-09 10:00:00 13.6 4 Sudeste 12 Sudeste 0 -- -- 70
2020-11-09 09:00:00 13.3 4 Sudoeste 18 Sur 0 -- -- 71
2020-11-09 08:00:00 13.4 5 Sudeste 14 Sudeste 0 -- -- 68
2020-11-09 07:00:00 12.7 5 Sur 13 Sur 0 -- -- 71
2020-11-09 06:00:00 12.8 4 Sur 10 Sur 0 -- -- 71
2020-11-09 05:00:00 12.7 4 Sur 9 Sudeste 0 -- -- 75
2020-11-09 04:00:00 13 3 Sudoeste 10 Sur 0 -- -- 70
2020-11-09 03:00:00 13.7 4 Sudoeste 20 Sudeste 0 -- -- 68
2020-11-09 02:00:00 14.1 5 Sudeste 24 Sudeste 0 -- -- 66
2020-11-09 01:00:00 14.1 8 Sudeste 23 Sudeste 0 -- -- 67
2020-11-09 00:00:00 13.6 5 Sudeste 22 Este 0 -- -- 71
2020-11-08 23:00:00 14.3 6 Sudeste 17 Este 0 -- -- 65
2020-11-08 22:00:00 14.4 8 Sudeste 33 Sudeste 0 -- -- 66
2020-11-08 21:00:00 14 6 Sudeste 24 Este 0 -- -- 69
2020-11-08 20:00:00 14.8 13 Sudeste 32 Sudeste 0 -- -- 66
2020-11-08 19:00:00 14.6 6 Sudeste 21 Sudeste 0 -- -- 69
2020-11-08 18:00:00 14.6 6 Sudeste 19 Sudeste 0 -- -- 69
2020-11-08 17:00:00 15.2 6 Sudeste 23 Sudeste 0 -- -- 65
2020-11-08 16:00:00 16.8 9 Sudeste 22 Sudeste 0 -- -- 59
2020-11-08 15:00:00 17.6 8 Sudeste 27 Sur 0 -- -- 59
2020-11-08 14:00:00 17.6 9 Sudeste 28 Este 0 -- -- 59
2020-11-08 13:00:00 16.7 10 Sudeste 22 Sudoeste 0 -- -- 60
2020-11-08 12:00:00 16.5 9 Sudeste 22 Sudeste 0 -- -- 62
2020-11-08 11:00:00 16.9 7 Sudeste 32 Sur 0 -- -- 58
2020-11-08 10:00:00 14.9 8 Sudeste 21 Sudeste 0 -- -- 62
2020-11-08 09:00:00 13.4 8 Sudeste 22 Este 0 -- -- 67
2020-11-08 08:00:00 11.4 4 Sur 10 Sur 0 -- -- 78
2020-11-08 07:00:00 12.8 5 Sudeste 18 Este 0 -- -- 70
2020-11-08 06:00:00 11.6 4 Sur 13 Norte 0 -- -- 79
2020-11-08 05:00:00 11.8 5 Sudoeste 17 Sudeste 0 -- -- 79
2020-11-08 04:00:00 13.3 8 Sudeste 27 Sudeste 0 -- -- 70
2020-11-08 03:00:00 11.2 4 Sur 13 Sudoeste 0 -- -- 84
2020-11-08 02:00:00 11.1 4 Sudoeste 8 Sudoeste 0 -- -- 87
2020-11-08 01:00:00 11.8 4 Sudoeste 12 Sudeste 0 -- -- 82
2020-11-08 00:00:00 11.8 5 Sur 10 Este 0 -- -- 81
2020-11-07 23:00:00 12.6 4 Sur 14 Sur 0 -- -- 77
2020-11-07 22:00:00 12.7 4 Sur 15 Noroeste 0 -- -- 79
2020-11-07 21:00:00 11.7 3 Sudoeste 12 Nordeste 0 -- -- 83
2020-11-07 20:00:00 13 4 Nordeste 22 Noroeste 0 -- -- 79
2020-11-07 19:00:00 14.2 5 Norte 18 Oeste 0 -- -- 72
2020-11-07 18:00:00 15 5 Sudoeste 19 Oeste 0 -- -- 69
2020-11-07 17:00:00 15.5 6 Nordeste 21 Sudeste 0 -- -- 73
2020-11-07 16:00:00 15.5 6 Nordeste 28 Sudeste 0 -- -- 77
2020-11-07 15:00:00 15.2 2 Sudoeste 9 Este 0 -- -- 80
2020-11-07 14:00:00 15.1 4 Sudeste 22 Sur 0 -- -- 79
2020-11-07 13:00:00 14.6 7 Sudeste 21 Este 0 -- -- 81
2020-11-07 12:00:00 14.1 3 Sur 8 Este 0 -- -- 90
2020-11-07 11:00:00 13.1 6 Sudeste 19 Sudeste 0 -- -- 92
2020-11-07 10:00:00 12.5 5 Sudeste 20 Oeste 0.4 -- -- 96
2020-11-07 09:00:00 11.8 9 Sudeste 22 Sudeste 7 -- -- 97
2020-11-07 08:00:00 12.6 4 Oeste 20 Noroeste 12.2 -- -- 92
2020-11-07 07:00:00 15 4 Sudoeste 24 Este 3.4 -- -- 89
2020-11-07 06:00:00 16.6 9 Sudeste 31 Sudeste 0 -- -- 73
2020-11-07 05:00:00 16.9 9 Sudeste 31 Sur 0 -- -- 71
2020-11-07 04:00:00 17.1 9 Sudeste 26 Este 0 -- -- 69
2020-11-07 03:00:00 17 10 Sudeste 30 Sur 0 -- -- 69
2020-11-07 02:00:00 17.1 9 Sudeste 45 Sudeste 0 -- -- 68
2020-11-07 01:00:00 17.3 10 Sudeste 44 Sudeste 0 -- -- 66
2020-11-07 00:00:00 17.5 16 Sudeste 39 Sudeste 0 -- -- 67
2020-11-06 23:00:00 17.3 6 Sur 27 Sur 0 -- -- 67
2020-11-06 22:00:00 17.3 12 Sudeste 40 Sudeste 0 -- -- 68
2020-11-06 21:00:00 17.5 17 Sudeste 48 Sudeste 0 -- -- 66
2020-11-06 20:00:00 17.5 12 Sudeste 33 Sudeste 0 -- -- 67
2020-11-06 19:00:00 17.5 8 Sudeste 26 Sur 0 -- -- 67
2020-11-06 18:00:00 17.3 13 Sudeste 37 Sudeste 0 -- -- 68
2020-11-06 17:00:00 17.3 10 Sudeste 35 Sudeste 0 -- -- 68
2020-11-06 16:00:00 17.6 15 Sudeste 39 Sudeste 0 -- -- 65
2020-11-06 15:00:00 17.9 10 Sudeste 44 Sudeste 0 -- -- 64
2020-11-06 14:00:00 18.7 13 Sudeste 40 Sudeste 0 -- -- 63
2020-11-06 13:00:00 17.6 15 Sudeste 35 Sudeste 0 -- -- 69
2020-11-06 12:00:00 17.6 16 Sudeste 34 Sudeste 0 -- -- 68
2020-11-06 11:00:00 17.7 10 Sudeste 39 Sudeste 0 -- -- 67
2020-11-06 10:00:00 16.5 14 Sudeste 36 Sur 0 -- -- 70
2020-11-06 09:00:00 15.2 12 Sudeste 32 Sudeste 0 -- -- 76
2020-11-06 08:00:00 14.7 6 Sudeste 26 Sudeste 0 -- -- 75
2020-11-06 07:00:00 14.5 6 Sur 22 Sudeste 0 -- -- 77
2020-11-06 06:00:00 14.6 11 Sudeste 34 Sudeste 0 -- -- 77
2020-11-06 05:00:00 14.4 12 Sudeste 39 Sudeste 0 -- -- 77
2020-11-06 04:00:00 14.4 17 Sudeste 40 Sur 0 -- -- 76
2020-11-06 03:00:00 14 4 Sur 22 Este 0 -- -- 78
2020-11-06 02:00:00 14.5 6 Sudeste 29 Sudeste 0 -- -- 74
2020-11-06 01:00:00 14 6 Sudeste 27 Este 0 -- -- 74
2020-11-06 00:00:00 14.2 6 Sudeste 30 Este 0 -- -- 73
2020-11-05 23:00:00 14.7 8 Sudeste 27 Este 0 -- -- 71
2020-11-05 22:00:00 14 8 Sudeste 26 Sudeste 0 -- -- 73
2020-11-05 21:00:00 12.8 9 Sudeste 23 Este 0 -- -- 74
2020-11-05 20:00:00 12.3 10 Sudeste 22 Sudeste 0 -- -- 75
2020-11-05 19:00:00 12.5 6 Sur 18 Sudeste 0 -- -- 73
2020-11-05 18:00:00 13.5 8 Sudeste 26 Sudeste 0 -- -- 67
2020-11-05 17:00:00 13.8 6 Sudeste 18 Sur 0 -- -- 66
2020-11-05 16:00:00 16.1 8 Sudeste 20 Sudeste 0 -- -- 57
2020-11-05 15:00:00 17.2 4 Este 17 Sudeste 0 -- -- 61
2020-11-05 14:00:00 16.8 5 Sur 20 Sudeste 0 -- -- 60
2020-11-05 13:00:00 14.4 3 Sudeste -- -- -- -- -- 67
2020-11-05 12:00:00 -- -- -- -- -- -- -- -- --
2020-11-05 11:00:00 11 4 Sudeste 9 Sudeste 0 -- -- 70
2020-11-05 10:00:00 8.4 4 Sur 9 Sudeste 0 -- -- 81
2020-11-05 09:00:00 6 3 Sur 8 Sur 0 -- -- 90
2020-11-05 08:00:00 5.1 4 Sur 9 Sur 0 -- -- 93
2020-11-05 07:00:00 5.1 3 Sur 6 Sudeste 0 -- -- 94
2020-11-05 06:00:00 5 0 Calma 4 Sur 0 -- -- 95
2020-11-05 05:00:00 4.7 2 Sur 6 Sudoeste 0 -- -- 94
2020-11-05 04:00:00 5 2 Oeste 5 Sur 0 -- -- 92
2020-11-05 03:00:00 6.3 0 Calma 6 Sudoeste 0 -- -- 88
2020-11-05 02:00:00 6.1 0 Calma 5 Sudoeste 0 -- -- 90
2020-11-05 01:00:00 6.3 2 Oeste 5 Oeste 0 -- -- 88
2020-11-05 00:00:00 7 0 Calma 9 Nordeste 0 -- -- 84
2020-11-04 23:00:00 7.3 4 Este 12 Este 0 -- -- 78
2020-11-04 22:00:00 7.5 4 Este 20 Este 0 -- -- 79
2020-11-04 21:00:00 7.5 5 Este 17 Este 0 -- -- 77
2020-11-04 20:00:00 7.5 7 Este 20 Este 0 -- -- 77
2020-11-04 19:00:00 7.7 8 Este 19 Este 0 -- -- 75
2020-11-04 18:00:00 7.8 6 Este 19 Este 0 -- -- 78
2020-11-04 17:00:00 8.4 6 Este 19 Este 0 -- -- 77
2020-11-04 16:00:00 9.1 5 Este 22 Este 0 -- -- 76
2020-11-04 15:00:00 9.1 8 Este 18 Este 0 -- -- 77
2020-11-04 14:00:00 9.3 6 Este 20 Este 0 -- -- 75
2020-11-04 13:00:00 9.3 7 Este 21 Este 0 -- -- 73
2020-11-04 12:00:00 9.6 6 Este 15 Este 0 -- -- 74
2020-11-04 11:00:00 9.6 5 Este 15 Este 0 -- -- 81
2020-11-04 10:00:00 7.2 0 Calma 5 Norte 0 -- -- 96
2020-11-04 09:00:00 5.6 3 Sur 13 Este 0.2 -- -- 98
2020-11-04 08:00:00 5.3 3 Sudoeste 7 Sudoeste 0 -- -- 99
2020-11-04 07:00:00 5.6 0 Calma 4 Sudoeste 0.6 -- -- 99
2020-11-04 06:00:00 5.4 0 Calma 6 Sudeste 0.2 -- -- 99
2020-11-04 05:00:00 5.7 2 Nordeste 8 Oeste 0.4 -- -- 99
2020-11-04 04:00:00 5.6 0 Calma 6 Sudoeste 0.2 -- -- 98
2020-11-04 03:00:00 5.6 0 Calma 4 Sudeste 0 -- -- 98
2020-11-04 02:00:00 5.4 4 Sudeste 7 Sur 0 -- -- 98
2020-11-04 01:00:00 5.6 0 Calma 10 Sudeste 0.2 -- -- 98
2020-11-04 00:00:00 5.9 4 Oeste 9 Sudoeste 0.4 -- -- 98
2020-11-03 23:00:00 5.6 3 Oeste 6 Noroeste 0 -- -- 98
2020-11-03 22:00:00 6.1 4 Sudoeste 9 Oeste 0 -- -- 97
2020-11-03 21:00:00 6.8 3 Oeste 18 Noroeste 0 -- -- 95
2020-11-03 20:00:00 6.4 3 Noroeste 9 Noroeste 0 -- -- 96
2020-11-03 19:00:00 7.8 5 Noroeste 27 Oeste 0.4 -- -- 94
2020-11-03 18:00:00 8.3 7 Noroeste 19 Noroeste 0 -- -- 94
2020-11-03 17:00:00 8.8 6 Noroeste 21 Noroeste 0 -- -- 93
2020-11-03 16:00:00 9.2 6 Noroeste 18 Norte 0.2 -- -- 94
2020-11-03 15:00:00 9 7 Noroeste 29 Nordeste 1.6 -- -- 97
2020-11-03 14:00:00 9.3 8 Norte 23 Norte 2.4 -- -- 96
2020-11-03 13:00:00 9.8 6 Noroeste 24 Noroeste 0 -- -- 96
2020-11-03 12:00:00 9.4 8 Noroeste 21 Noroeste 1.8 -- -- 96
2020-11-03 11:00:00 9.6 7 Noroeste 18 Noroeste 0.6 -- -- 96
2020-11-03 10:00:00 9.4 2 Noroeste 6 Oeste 0 -- -- 96
2020-11-03 09:00:00 9 3 Oeste 10 Noroeste 0.6 -- -- 98
2020-11-03 08:00:00 9 3 Noroeste 9 Noroeste 0.4 -- -- 98
2020-11-03 07:00:00 9.1 2 Norte 5 Oeste 0.2 -- -- 98
2020-11-03 06:00:00 9.1 3 Noroeste 9 Noroeste 0.4 -- -- 97
2020-11-03 05:00:00 9.2 5 Noroeste 13 Norte 0.8 -- -- 97
2020-11-03 04:00:00 9.8 4 Noroeste 10 Noroeste 1 -- -- 98
2020-11-03 03:00:00 9.7 2 Oeste 8 Norte 4 -- -- 97
2020-11-03 02:00:00 9.9 3 Norte 13 Norte 1.2 -- -- 97
2020-11-03 01:00:00 10.3 5 Norte 12 Norte 0.2 -- -- 96
2020-11-03 00:00:00 10.6 3 Norte 8 Norte 0.6 -- -- 96
2020-11-02 23:00:00 10.8 0 Calma 5 Oeste 0.2 -- -- 96
2020-11-02 22:00:00 11 0 Calma 4 Este 0 -- -- 96
2020-11-02 21:00:00 10.9 2 Sudoeste 5 Oeste 0 -- -- 96
2020-11-02 20:00:00 11.2 3 Oeste 17 Noroeste 0.6 -- -- 96
2020-11-02 19:00:00 11.7 8 Noroeste 22 Oeste 0.6 -- -- 97
2020-11-02 18:00:00 12.3 10 Noroeste 25 Noroeste 1 -- -- 95
2020-11-02 17:00:00 13.4 11 Noroeste 29 Noroeste 0.4 -- -- 93
2020-11-02 16:00:00 15.4 13 Noroeste 35 Noroeste 0 -- -- 87
2020-11-02 15:00:00 21.7 4 Sudeste 14 Sudeste 0 -- -- 60
2020-11-02 14:00:00 21.6 4 Sur 12 Sudeste 0 -- -- 58
2020-11-02 13:00:00 19.6 3 Norte 16 Noroeste 0 -- -- 68
2020-11-02 12:00:00 18.6 4 Norte 20 Noroeste 0 -- -- 68
2020-11-02 11:00:00 18 4 Norte 12 Este 0 -- -- 69
2020-11-02 10:00:00 17 5 Este 13 Nordeste 0 -- -- 73
2020-11-02 09:00:00 15.7 3 Sudeste 16 Nordeste 0 -- -- 82
2020-11-02 08:00:00 15.3 4 Norte 19 Sudeste 0 -- -- 83
2020-11-02 07:00:00 14.9 4 Sudeste 19 Sudeste 0 -- -- 84
2020-11-02 06:00:00 16 4 Sudoeste 25 Este 0 -- -- 78
2020-11-02 05:00:00 17 7 Este 23 Este 0 -- -- 75
2020-11-02 04:00:00 17 5 Nordeste 19 Norte 0 -- -- 72
2020-11-02 03:00:00 18.2 4 Sudeste 18 Nordeste 0 -- -- 67
2020-11-02 02:00:00 17.3 5 Nordeste 18 Norte 0 -- -- 70
2020-11-02 01:00:00 17.9 6 Nordeste 22 Sudeste 0 -- -- 69
2020-11-02 00:00:00 17.1 5 Nordeste 22 Sudeste 0 -- -- 73